Time;durP1;ratioP1;P1;durP2;ratioP2;P2;SDS_P1;SDS_P2;PMS_P1;PMS_P2;Temp;Humidity;BMP_temperature;BMP_pressure;BME280_temperature;BME280_humidity;BME280_pressure;Samples;Min_cycle;Max_cycle;Signal;HPM_P1;HPM_P2
2022/03/08 00:02:21;;;;;;;;;;;;;;;4.76;34.69;99541.63;4498130;31;33614;-80
2022/03/08 00:04:49;;;;;;;;;;;;;;;4.60;35.16;99549.50;4497215;31;34637;-80
2022/03/08 00:07:16;;;;;;;;;;;;;;;4.92;34.03;99555.97;4495380;31;34514;-81
2022/03/08 00:09:43;;;;;;;;;;;;;;;5.79;32.86;99549.13;4497576;31;33198;-81
2022/03/08 00:12:11;;;;;;;;;;;;;;;4.72;34.33;99550.00;4497238;31;35571;-81
2022/03/08 00:14:38;;;;;;;;;;;;;;;5.33;33.13;99544.78;4499072;31;35200;-81
2022/03/08 00:17:05;;;;;;;;;;;;;;;5.84;32.40;99550.22;4499843;31;33966;-80
2022/03/08 00:19:33;;;;;;;;;;;;;;;5.63;33.00;99551.94;4498876;31;32923;-81
2022/03/08 00:22:00;;;;;;;;;;;;;;;6.32;31.69;99539.09;4500106;31;33859;-81
2022/03/08 00:24:27;;;;;;;;;;;;;;;6.21;31.92;99551.59;4500289;31;34000;-80
2022/03/08 00:26:54;;;;;;;;;;;;;;;6.20;31.83;99546.38;4499516;31;35295;-80
2022/03/08 00:29:21;;;;;;;;;;;;;;;6.54;31.33;99543.31;4500025;31;33962;-81
2022/03/08 00:31:49;;;;;;;;;;;;;;;6.48;31.48;99545.69;4500156;31;33645;-79
2022/03/08 00:34:16;;;;;;;;;;;;;;;7.26;31.04;99543.13;4499849;31;35443;-80
2022/03/08 00:36:44;;;;;;;;;;;;;;;7.40;30.38;99531.53;4500222;31;34320;-80
2022/03/08 00:39:12;;;;;;;;;;;;;;;7.36;30.34;99539.16;4499793;31;34521;-80
2022/03/08 00:41:39;;;;;;;;;;;;;;;7.33;30.31;99532.19;4499465;31;34070;-79
2022/03/08 00:44:07;;;;;;;;;;;;;;;7.14;30.58;99543.59;4496836;31;34236;-80
2022/03/08 00:46:34;;;;;;;;;;;;;;;7.72;29.65;99534.22;4499516;31;34100;-80
2022/03/08 00:49:03;;;;;;;;;;;;;;;8.19;29.93;99527.00;4499078;31;33661;-81
2022/03/08 00:51:30;;;;;;;;;;;;;;;7.60;30.35;99531.28;4497581;31;34953;-80
2022/03/08 00:53:57;;;;;;;;;;;;;;;7.24;30.76;99532.78;4499825;31;34331;-79
2022/03/08 00:56:24;;;;;;;;;;;;;;;7.43;30.58;99533.34;4499225;31;35060;-81
2022/03/08 00:58:52;;;;;;;;;;;;;;;7.58;30.54;99528.66;4499435;31;34520;-80
2022/03/08 01:01:19;;;;;;;;;;;;;;;7.74;30.41;99522.25;4499703;31;33992;-80
2022/03/08 01:03:47;;;;;;;;;;;;;;;8.27;30.06;99526.38;4499435;31;34160;-78
2022/03/08 01:06:14;;;;;;;;;;;;;;;8.64;29.67;99524.81;4499609;31;35210;-80
2022/03/08 01:08:41;;;;;;;;;;;;;;;7.85;30.35;99526.03;4498209;31;34474;-80
2022/03/08 01:11:08;;;;;;;;;;;;;;;8.52;29.46;99522.78;4499747;31;34282;-80
2022/03/08 01:13:35;;;;;;;;;;;;;;;8.70;29.63;99521.50;4499990;31;34878;-80
2022/03/08 01:16:03;;;;;;;;;;;;;;;9.14;29.45;99525.19;4499467;31;34224;-80
2022/03/08 01:18:31;;;;;;;;;;;;;;;9.33;29.36;99517.88;4499500;31;33078;-82
2022/03/08 01:20:58;;;;;;;;;;;;;;;9.36;29.20;99517.97;4499175;31;33930;-80
2022/03/08 01:23:25;;;;;;;;;;;;;;;8.57;29.66;99520.31;4483949;32;34322;-81
2022/03/08 01:25:53;;;;;;;;;;;;;;;7.18;31.25;99524.84;4485808;31;35259;-81
2022/03/08 01:28:21;;;;;;;;;;;;;;;6.03;33.26;99528.63;4499822;31;33581;-80
2022/03/08 01:30:49;;;;;;;;;;;;;;;6.90;31.77;99520.50;4499420;31;33592;-80
2022/03/08 01:33:17;;;;;;;;;;;;;;;7.23;31.40;99520.69;4499613;31;35361;-81
2022/03/08 01:35:44;;;;;;;;;;;;;;;7.31;31.46;99523.50;4499395;31;34334;-80
2022/03/08 01:38:11;;;;;;;;;;;;;;;7.59;31.05;99519.22;4499084;31;33623;-80
2022/03/08 01:40:39;;;;;;;;;;;;;;;7.71;30.64;99522.16;4499145;31;34146;-79
2022/03/08 01:43:06;;;;;;;;;;;;;;;8.08;30.57;99529.28;4499679;31;33954;-80
2022/03/08 01:45:34;;;;;;;;;;;;;;;8.33;29.93;99519.59;4499156;31;34723;-81
2022/03/08 01:48:03;;;;;;;;;;;;;;;7.87;31.19;99528.63;4499091;31;34347;-79
2022/03/08 01:50:30;;;;;;;;;;;;;;;7.98;30.58;99517.78;4497594;31;33784;-80
2022/03/08 01:52:58;;;;;;;;;;;;;;;8.49;30.07;99521.81;4493766;31;33497;-79
2022/03/08 01:55:26;;;;;;;;;;;;;;;8.22;29.94;99522.78;4481860;31;33008;-81
2022/03/08 01:57:53;;;;;;;;;;;;;;;8.07;30.60;99519.78;4499207;31;33687;-80
2022/03/08 02:00:22;;;;;;;;;;;;;;;8.19;30.60;99516.66;4499248;31;35270;-80
2022/03/08 02:02:50;;;;;;;;;;;;;;;8.28;30.53;99514.31;4498616;31;35169;-81
2022/03/08 02:05:22;;;;;;;;;;;;;;;8.09;30.69;99517.22;4486453;31;35194;-81
2022/03/08 02:07:49;;;;;;;;;;;;;;;6.92;31.98;99517.97;4498288;31;33791;-80
2022/03/08 02:10:16;;;;;;;;;;;;;;;7.53;31.37;99517.31;4498977;31;34374;-81
2022/03/08 02:12:43;;;;;;;;;;;;;;;7.87;31.04;99513.16;4493466;31;35323;-81
2022/03/08 02:15:15;;;;;;;;;;;;;;;7.76;31.05;99510.25;4499629;31;35079;-80
2022/03/08 02:17:42;;;;;;;;;;;;;;;7.59;31.56;99514.94;4496762;31;33742;-79
2022/03/08 02:20:10;;;;;;;;;;;;;;;7.58;31.46;99520.94;4488079;31;34984;-80
2022/03/08 02:22:39;;;;;;;;;;;;;;;7.25;31.90;99519.03;4495958;31;34989;-81
2022/03/08 02:25:06;;;;;;;;;;;;;;;6.64;32.67;99519.63;4498856;31;35091;-81
2022/03/08 02:27:33;;;;;;;;;;;;;;;7.35;32.01;99515.06;4498871;31;33769;-80
2022/03/08 02:30:02;;;;;;;;;;;;;;;7.07;32.46;99515.88;4488111;31;34266;-81
2022/03/08 02:32:29;;;;;;;;;;;;;;;6.19;33.50;99522.34;4487838;31;34992;-80
2022/03/08 02:35:03;;;;;;;;;;;;;;;5.85;34.46;99517.62;4486191;31;34846;-81
2022/03/08 02:37:36;;;;;;;;;;;;;;;6.87;32.77;99514.38;4498712;31;33566;-80
2022/03/08 02:40:04;;;;;;;;;;;;;;;6.50;33.32;99511.41;4499003;31;34787;-81
2022/03/08 02:42:31;;;;;;;;;;;;;;;7.03;32.52;99519.19;4498770;31;35298;-80
2022/03/08 02:44:59;;;;;;;;;;;;;;;7.50;31.80;99514.63;4498249;31;34425;-80
2022/03/08 02:47:26;;;;;;;;;;;;;;;7.77;31.36;99520.66;4498948;31;33655;-80
2022/03/08 02:49:53;;;;;;;;;;;;;;;8.23;30.69;99519.38;4498550;31;34926;-80
2022/03/08 02:52:20;;;;;;;;;;;;;;;8.26;30.72;99511.72;4499124;31;34776;-80
2022/03/08 02:54:48;;;;;;;;;;;;;;;8.26;30.76;99509.12;4498349;31;34616;-80
2022/03/08 02:57:15;;;;;;;;;;;;;;;8.12;31.02;99513.03;4498743;31;33345;-81
2022/03/08 02:59:42;;;;;;;;;;;;;;;8.15;30.84;99514.84;4498335;31;34318;-80
2022/03/08 03:02:09;;;;;;;;;;;;;;;8.33;30.79;99514.44;4498828;31;35085;-80
2022/03/08 03:04:37;;;;;;;;;;;;;;;8.28;30.93;99516.91;4499081;31;34570;-80
2022/03/08 03:07:05;;;;;;;;;;;;;;;8.19;30.90;99522.69;4498572;31;34367;-81
2022/03/08 03:09:33;;;;;;;;;;;;;;;8.08;31.23;99524.09;4498720;31;34306;-81
2022/03/08 03:12:00;;;;;;;;;;;;;;;7.75;31.57;99524.88;4498817;31;34273;-81
2022/03/08 03:14:27;;;;;;;;;;;;;;;8.05;31.13;99519.72;4498376;31;34297;-81
2022/03/08 03:16:55;;;;;;;;;;;;;;;8.24;30.94;99523.69;4498680;31;34464;-80
2022/03/08 03:19:22;;;;;;;;;;;;;;;7.87;31.40;99519.19;4498786;31;34149;-81
2022/03/08 03:21:49;;;;;;;;;;;;;;;8.08;31.23;99520.66;4491308;31;33907;-81
2022/03/08 03:24:16;;;;;;;;;;;;;;;7.51;32.07;99524.16;4498573;31;35636;-80
2022/03/08 03:26:43;;;;;;;;;;;;;;;7.04;32.67;99518.34;4498405;31;34207;-80
2022/03/08 03:29:11;;;;;;;;;;;;;;;7.74;31.69;99519.69;4478621;31;34719;-81
2022/03/08 03:31:38;;;;;;;;;;;;;;;7.21;32.45;99527.50;4498536;31;34584;-81
2022/03/08 03:34:05;;;;;;;;;;;;;;;7.38;32.37;99528.03;4498704;31;34918;-81
2022/03/08 03:36:32;;;;;;;;;;;;;;;7.68;31.86;99529.81;4498597;31;33034;-80
2022/03/08 03:39:00;;;;;;;;;;;;;;;7.26;32.34;99530.22;4492331;31;32815;-79
2022/03/08 03:41:27;;;;;;;;;;;;;;;6.67;33.25;99529.16;4498883;31;34215;-80
2022/03/08 03:43:54;;;;;;;;;;;;;;;7.07;33.06;99531.34;4497973;31;34246;-80
2022/03/08 03:46:21;;;;;;;;;;;;;;;6.30;34.18;99538.19;4498588;31;34521;-80
2022/03/08 03:48:49;;;;;;;;;;;;;;;5.64;35.08;99532.25;4497470;31;34994;-82
2022/03/08 03:51:16;;;;;;;;;;;;;;;6.40;34.31;99531.62;4498555;31;33977;-81
2022/03/08 03:53:45;;;;;;;;;;;;;;;6.87;33.26;99533.28;4498477;31;34530;-81
2022/03/08 03:56:12;;;;;;;;;;;;;;;5.10;36.55;99538.75;4495837;31;33536;-81
2022/03/08 03:58:39;;;;;;;;;;;;;;;6.42;34.26;99524.84;4497378;31;34096;-81
2022/03/08 04:01:06;;;;;;;;;;;;;;;6.28;34.16;99525.22;4498415;31;34951;-80
2022/03/08 04:03:34;;;;;;;;;;;;;;;5.05;36.86;99524.84;4497263;31;34705;-80
2022/03/08 04:06:01;;;;;;;;;;;;;;;6.11;35.25;99521.19;4492033;31;33432;-80
2022/03/08 04:08:29;;;;;;;;;;;;;;;5.21;36.90;99523.75;4496460;31;34310;-80
2022/03/08 04:10:57;;;;;;;;;;;;;;;5.85;35.76;99513.34;4498340;31;34379;-81
2022/03/08 04:13:24;;;;;;;;;;;;;;;5.96;35.62;99520.63;4497724;31;34617;-81
2022/03/08 04:15:52;;;;;;;;;;;;;;;4.98;37.46;99521.97;4497567;31;33502;-82
2022/03/08 04:18:19;;;;;;;;;;;;;;;4.67;37.95;99525.84;4495305;31;34565;-81
2022/03/08 04:20:46;;;;;;;;;;;;;;;5.56;36.57;99527.69;4497278;31;34940;-81
2022/03/08 04:23:14;;;;;;;;;;;;;;;5.84;35.91;99531.31;4497960;31;34193;-81
2022/03/08 04:25:41;;;;;;;;;;;;;;;4.95;37.76;99532.09;4497545;31;34360;-81
2022/03/08 04:28:08;;;;;;;;;;;;;;;6.43;34.71;99521.44;4497393;31;34987;-81
2022/03/08 04:30:35;;;;;;;;;;;;;;;6.68;33.86;99526.63;4497523;31;34116;-80
2022/03/08 04:33:03;;;;;;;;;;;;;;;6.38;34.81;99525.56;4496836;31;34528;-79
2022/03/08 04:35:30;;;;;;;;;;;;;;;6.61;34.51;99528.94;4496730;31;33648;-80
2022/03/08 04:37:57;;;;;;;;;;;;;;;6.95;33.87;99529.25;4497092;31;32383;-80
2022/03/08 04:40:24;;;;;;;;;;;;;;;7.13;33.66;99526.41;4497100;31;34376;-80
2022/03/08 04:42:52;;;;;;;;;;;;;;;7.01;33.46;99531.16;4496399;31;34589;-80
2022/03/08 04:45:19;;;;;;;;;;;;;;;7.42;32.91;99521.25;4497849;31;33570;-81
2022/03/08 04:47:47;;;;;;;;;;;;;;;7.19;33.22;99524.00;4485103;31;35053;-80
2022/03/08 04:50:14;;;;;;;;;;;;;;;7.28;33.04;99520.84;4491101;31;34326;-79
2022/03/08 04:52:41;;;;;;;;;;;;;;;6.36;34.79;99530.66;4494752;31;35205;-80
2022/03/08 04:55:09;;;;;;;;;;;;;;;6.36;34.47;99525.50;4496138;31;33756;-81
2022/03/08 04:57:36;;;;;;;;;;;;;;;6.53;34.29;99521.81;4489681;31;34319;-80
2022/03/08 05:00:05;;;;;;;;;;;;;;;6.72;33.94;99525.03;4497081;31;33872;-80
2022/03/08 05:02:34;;;;;;;;;;;;;;;5.97;34.95;99522.38;4491733;31;34340;-81
2022/03/08 05:05:01;;;;;;;;;;;;;;;6.86;33.82;99522.91;4497985;31;34488;-81
2022/03/08 05:07:28;;;;;;;;;;;;;;;6.72;33.89;99525.03;4499445;31;34143;-79
2022/03/08 05:09:56;;;;;;;;;;;;;;;7.10;33.40;99515.09;4499570;31;35090;-80
2022/03/08 05:12:23;;;;;;;;;;;;;;;7.36;32.77;99513.34;4499441;31;35280;-80
2022/03/08 05:14:50;;;;;;;;;;;;;;;7.34;32.81;99515.00;4484104;32;34567;-81
2022/03/08 05:17:17;;;;;;;;;;;;;;;7.45;32.64;99518.78;4498932;31;34209;-81
2022/03/08 05:19:45;;;;;;;;;;;;;;;7.64;32.17;99510.78;4499005;31;35296;-79
2022/03/08 05:22:12;;;;;;;;;;;;;;;7.12;32.86;99509.16;4497507;31;34633;-81
2022/03/08 05:24:39;;;;;;;;;;;;;;;7.44;32.63;99511.88;4498462;31;33463;-79
2022/03/08 05:27:07;;;;;;;;;;;;;;;6.93;33.62;99515.44;4498741;31;34458;-82
2022/03/08 05:29:34;;;;;;;;;;;;;;;6.95;34.00;99515.50;4498514;31;34080;-80
2022/03/08 05:32:02;;;;;;;;;;;;;;;7.16;33.62;99511.03;4498803;31;34524;-79
2022/03/08 05:34:29;;;;;;;;;;;;;;;7.26;33.50;99507.88;4498609;31;33722;-80
2022/03/08 05:36:57;;;;;;;;;;;;;;;7.50;33.19;99518.13;4497840;31;34829;-81
2022/03/08 05:39:24;;;;;;;;;;;;;;;7.43;33.42;99517.88;4500727;31;34161;-78
2022/03/08 05:41:51;;;;;;;;;;;;;;;7.42;33.51;99518.69;4501127;31;34213;-81
2022/03/08 05:44:18;;;;;;;;;;;;;;;6.65;34.18;99525.66;4499001;31;33309;-80
2022/03/08 05:46:46;;;;;;;;;;;;;;;7.30;33.48;99525.22;4489692;31;33802;-82
2022/03/08 05:49:13;;;;;;;;;;;;;;;7.37;33.61;99525.41;4486698;31;34837;-78
2022/03/08 05:51:42;;;;;;;;;;;;;;;7.20;33.49;99528.34;4499017;31;35213;-78
2022/03/08 05:54:10;;;;;;;;;;;;;;;7.59;32.80;99527.81;4499157;31;34246;-80
2022/03/08 05:56:37;;;;;;;;;;;;;;;7.40;33.33;99528.09;4499510;31;34396;-83
2022/03/08 05:59:04;;;;;;;;;;;;;;;7.49;33.36;99528.37;4498549;31;35006;-79
2022/03/08 06:01:31;;;;;;;;;;;;;;;7.44;33.59;99527.34;4498532;31;34026;-80
2022/03/08 06:03:59;;;;;;;;;;;;;;;7.55;33.32;99532.03;4498882;31;34516;-80
2022/03/08 06:06:26;;;;;;;;;;;;;;;6.63;35.02;99528.19;4498753;31;34280;-81
2022/03/08 06:08:54;;;;;;;;;;;;;;;6.68;35.27;99530.91;4499268;31;35256;-80
2022/03/08 06:11:21;;;;;;;;;;;;;;;7.13;34.40;99530.69;4498810;31;34597;-80
2022/03/08 06:13:48;;;;;;;;;;;;;;;6.16;36.72;99544.53;4497902;31;33285;-78
2022/03/08 06:16:15;;;;;;;;;;;;;;;5.52;38.32;99545.53;4499191;31;34225;-80
2022/03/08 06:18:43;;;;;;;;;;;;;;;5.27;38.89;99548.84;4499136;31;35342;-80
2022/03/08 06:21:10;;;;;;;;;;;;;;;5.63;38.45;99557.09;4498387;31;33792;-79
2022/03/08 06:23:37;;;;;;;;;;;;;;;6.01;37.77;99549.97;4498850;31;34482;-82
2022/03/08 06:26:05;;;;;;;;;;;;;;;5.57;38.56;99551.75;4499026;31;35065;-80
2022/03/08 06:28:33;;;;;;;;;;;;;;;5.09;40.31;99559.25;4494941;31;34359;-79
2022/03/08 06:31:00;;;;;;;;;;;;;;;5.29;39.89;99557.47;4499117;31;35562;-80
2022/03/08 06:33:27;;;;;;;;;;;;;;;4.54;41.94;99564.63;4498886;31;33623;-79
2022/03/08 06:35:54;;;;;;;;;;;;;;;4.20;42.59;99559.72;4497787;31;33943;-80
2022/03/08 06:38:22;;;;;;;;;;;;;;;5.48;40.00;99561.66;4499591;31;34389;-79
2022/03/08 06:40:50;;;;;;;;;;;;;;;5.63;39.57;99564.81;4499197;31;34627;-79
2022/03/08 06:43:17;;;;;;;;;;;;;;;5.69;39.46;99559.91;4498061;31;33607;-83
2022/03/08 06:45:44;;;;;;;;;;;;;;;6.04;38.81;99565.53;4497664;31;34147;-80
2022/03/08 06:48:12;;;;;;;;;;;;;;;5.90;39.52;99566.69;4499032;31;34118;-80
2022/03/08 06:50:40;;;;;;;;;;;;;;;5.01;41.65;99565.78;4499083;31;34142;-79
2022/03/08 06:53:07;;;;;;;;;;;;;;;5.54;40.08;99567.03;4499322;31;34291;-79
2022/03/08 06:55:35;;;;;;;;;;;;;;;4.84;41.29;99565.06;4499181;31;34302;-79
2022/03/08 06:58:03;;;;;;;;;;;;;;;4.80;41.60;99569.19;4499152;31;34618;-79
2022/03/08 07:04:11;;;;;;;;;;;;;;;5.02;41.42;99576.09;4499193;31;33659;-80
2022/03/08 07:06:39;;;;;;;;;;;;;;;6.29;39.16;99586.22;4499203;31;34983;-80
2022/03/08 07:09:06;;;;;;;;;;;;;;;6.08;38.94;99590.56;4497924;31;34521;-83
2022/03/08 07:11:36;;;;;;;;;;;;;;;6.13;39.51;99589.03;4498013;31;34062;-80
2022/03/08 07:14:03;;;;;;;;;;;;;;;5.54;40.41;99591.06;4499093;31;34605;-80
2022/03/08 07:16:31;;;;;;;;;;;;;;;6.39;38.73;99583.97;4498961;31;33603;-80
2022/03/08 07:18:58;;;;;;;;;;;;;;;6.21;39.07;99590.22;4497739;31;35354;-80
2022/03/08 07:21:25;;;;;;;;;;;;;;;6.44;38.56;99580.75;4499079;31;34150;-82
2022/03/08 07:23:53;;;;;;;;;;;;;;;6.25;38.66;99592.09;4497773;31;33485;-79
2022/03/08 07:26:20;;;;;;;;;;;;;;;5.33;41.34;99596.22;4499107;31;34391;-80
2022/03/08 07:28:48;;;;;;;;;;;;;;;6.58;38.50;99586.38;4499161;31;34927;-79
2022/03/08 07:31:15;;;;;;;;;;;;;;;6.50;38.34;99577.50;4498877;31;34721;-80
2022/03/08 07:33:42;;;;;;;;;;;;;;;6.27;38.91;99593.00;4499188;31;33577;-81
2022/03/08 07:36:10;;;;;;;;;;;;;;;6.51;38.23;99584.41;4498905;31;34793;-80
2022/03/08 07:38:37;;;;;;;;;;;;;;;6.42;38.83;99586.66;4498714;31;35589;-85
2022/03/08 07:41:05;;;;;;;;;;;;;;;6.61;37.70;99583.91;4498791;31;35061;-83
2022/03/08 07:43:34;;;;;;;;;;;;;;;7.23;36.73;99585.16;4497576;31;34330;-80
2022/03/08 07:46:04;;;;;;;;;;;;;;;7.89;35.76;99582.06;4497470;31;34136;-80
2022/03/08 07:48:32;;;;;;;;;;;;;;;7.52;35.66;99585.22;4497263;31;34292;-80
2022/03/08 07:50:59;;;;;;;;;;;;;;;7.10;36.81;99587.28;4498903;31;35379;-80
2022/03/08 07:53:27;;;;;;;;;;;;;;;7.64;35.59;99583.03;4498658;31;33114;-80
2022/03/08 07:55:54;;;;;;;;;;;;;;;8.46;34.60;99588.91;4498791;31;34487;-80
2022/03/08 07:58:22;;;;;;;;;;;;;;;7.83;35.67;99578.44;4497565;31;34629;-80
2022/03/08 08:00:49;;;;;;;;;;;;;;;8.15;35.06;99587.16;4498589;31;34924;-80
2022/03/08 08:03:16;;;;;;;;;;;;;;;8.39;35.02;99582.69;4498639;31;33043;-80
2022/03/08 08:05:44;;;;;;;;;;;;;;;8.80;33.51;99584.66;4498460;31;35021;-80
2022/03/08 08:08:11;;;;;;;;;;;;;;;8.70;33.31;99594.75;4498442;31;34890;-80
2022/03/08 08:10:39;;;;;;;;;;;;;;;9.48;31.70;99582.94;4498490;31;35280;-80
2022/03/08 08:13:06;;;;;;;;;;;;;;;9.10;32.94;99580.28;4498404;31;33548;-81
2022/03/08 08:15:36;;;;;;;;;;;;;;;9.52;31.71;99578.72;4498250;31;34244;-80
2022/03/08 08:18:10;;;;;;;;;;;;;;;9.09;32.81;99580.22;4498265;31;35433;-81
2022/03/08 08:20:38;;;;;;;;;;;;;;;8.50;33.62;99585.59;4498267;31;34244;-80
2022/03/08 08:23:06;;;;;;;;;;;;;;;8.93;32.49;99576.38;4497010;31;33942;-80
2022/03/08 08:25:33;;;;;;;;;;;;;;;8.87;32.47;99586.59;4498260;31;33804;-81
2022/03/08 08:28:00;;;;;;;;;;;;;;;8.32;33.42;99585.91;4498089;31;34083;-80
2022/03/08 08:30:27;;;;;;;;;;;;;;;9.86;31.09;99581.22;4497970;31;34340;-80
2022/03/08 08:32:55;;;;;;;;;;;;;;;9.41;32.03;99578.44;4498265;31;33618;-80
2022/03/08 08:35:22;;;;;;;;;;;;;;;9.40;32.16;99576.72;4498605;31;34320;-80
2022/03/08 08:37:49;;;;;;;;;;;;;;;9.39;32.01;99580.09;4500181;31;35324;-80
2022/03/08 08:40:17;;;;;;;;;;;;;;;9.66;31.49;99578.19;4500298;31;33863;-80
2022/03/08 08:42:44;;;;;;;;;;;;;;;9.30;31.84;99570.41;4500009;31;33018;-80
2022/03/08 08:45:11;;;;;;;;;;;;;;;9.00;32.19;99573.13;4499786;31;34013;-80
2022/03/08 08:47:38;;;;;;;;;;;;;;;9.63;31.18;99583.28;4500111;31;34827;-80
2022/03/08 08:50:05;;;;;;;;;;;;;;;10.90;29.63;99561.72;4499838;31;34323;-80
2022/03/08 08:52:33;;;;;;;;;;;;;;;11.63;29.01;99562.94;4500341;31;33678;-80
2022/03/08 08:55:01;;;;;;;;;;;;;;;11.67;28.50;99564.72;4500009;31;34173;-81
2022/03/08 08:57:32;;;;;;;;;;;;;;;12.22;27.65;99558.53;4500030;31;35047;-81
2022/03/08 09:00:00;;;;;;;;;;;;;;;12.00;27.88;99563.44;4499838;31;34559;-81
2022/03/08 09:02:27;;;;;;;;;;;;;;;12.08;27.13;99564.41;4499962;31;33768;-80
2022/03/08 09:04:54;;;;;;;;;;;;;;;11.89;27.80;99555.53;4499692;31;34287;-80
2022/03/08 09:07:21;;;;;;;;;;;;;;;10.93;28.60;99559.19;4499881;31;34155;-80
2022/03/08 09:09:49;;;;;;;;;;;;;;;10.44;29.23;99563.44;4499884;31;34328;-80
2022/03/08 09:12:16;;;;;;;;;;;;;;;10.67;29.14;99553.50;4499924;31;33642;-80
2022/03/08 09:14:43;;;;;;;;;;;;;;;10.27;29.60;99557.94;4499705;31;34288;-79
2022/03/08 09:17:10;;;;;;;;;;;;;;;11.82;27.67;99556.28;4500031;31;34802;-80
2022/03/08 09:19:38;;;;;;;;;;;;;;;11.56;27.47;99549.81;4499779;31;35167;-80
2022/03/08 09:22:06;;;;;;;;;;;;;;;13.03;25.43;99547.28;4500158;31;34595;-80
2022/03/08 09:24:35;;;;;;;;;;;;;;;12.22;26.04;99540.34;4499958;31;33892;-81
2022/03/08 09:27:03;;;;;;;;;;;;;;;12.86;25.22;99541.91;4499677;31;34368;-80
2022/03/08 09:29:30;;;;;;;;;;;;;;;11.30;26.91;99554.62;4499574;31;34518;-82
2022/03/08 09:31:57;;;;;;;;;;;;;;;12.14;26.62;99551.50;4499696;31;34591;-81
2022/03/08 09:34:24;;;;;;;;;;;;;;;11.15;27.66;99553.50;4499815;31;33833;-80
2022/03/08 09:36:52;;;;;;;;;;;;;;;11.01;27.66;99547.22;4498563;31;34386;-80
2022/03/08 09:39:19;;;;;;;;;;;;;;;10.68;28.45;99550.97;4499698;31;34100;-80
2022/03/08 09:41:51;;;;;;;;;;;;;;;10.15;29.14;99553.34;4499797;31;33433;-80
2022/03/08 09:44:19;;;;;;;;;;;;;;;12.14;26.14;99541.13;4499606;31;34019;-80
2022/03/08 09:46:46;;;;;;;;;;;;;;;12.46;25.31;99543.22;4499036;31;34205;-81
2022/03/08 09:49:13;;;;;;;;;;;;;;;12.24;24.42;99551.66;4499518;31;34375;-80
2022/03/08 09:51:41;;;;;;;;;;;;;;;12.54;24.38;99536.41;4499779;31;33740;-85
2022/03/08 09:54:08;;;;;;;;;;;;;;;11.53;24.38;99545.44;4499693;31;33842;-80
2022/03/08 09:56:35;;;;;;;;;;;;;;;10.20;25.22;99549.13;4499414;31;35051;-80
2022/03/08 09:59:03;;;;;;;;;;;;;;;10.19;25.85;99556.84;4499489;31;33965;-80
2022/03/08 10:01:30;;;;;;;;;;;;;;;10.61;25.58;99548.22;4499682;31;33761;-80
2022/03/08 10:04:02;;;;;;;;;;;;;;;10.77;25.47;99554.56;4499612;31;34902;-80
2022/03/08 10:06:50;;;;;;;;;;;;;;;11.37;25.35;99548.69;4499731;31;34822;-80
2022/03/08 10:09:18;;;;;;;;;;;;;;;12.12;25.30;99544.53;4499464;31;34229;-82
2022/03/08 10:11:49;;;;;;;;;;;;;;;11.74;24.79;99549.19;4499426;31;33208;-80
2022/03/08 10:14:36;;;;;;;;;;;;;;;11.63;25.11;99552.53;4499464;31;34265;-80
2022/03/08 10:17:04;;;;;;;;;;;;;;;12.59;24.31;99546.84;4499531;31;34180;-80
2022/03/08 10:19:42;;;;;;;;;;;;;;;11.26;25.00;99543.31;4499626;31;34748;-80
2022/03/08 10:22:21;;;;;;;;;;;;;;;11.83;25.05;99544.16;4499571;31;33044;-85
2022/03/08 10:24:48;;;;;;;;;;;;;;;11.30;25.27;99547.69;4499268;31;35136;-80
2022/03/08 10:27:16;;;;;;;;;;;;;;;11.80;25.72;99554.50;4499477;31;34088;-81
2022/03/08 10:29:45;;;;;;;;;;;;;;;12.79;24.44;99552.25;4499671;31;34100;-80
2022/03/08 10:32:16;;;;;;;;;;;;;;;13.06;23.64;99543.81;4499266;31;34413;-80
2022/03/08 10:34:44;;;;;;;;;;;;;;;13.50;22.76;99544.19;4498186;31;33904;-81
2022/03/08 10:37:17;;;;;;;;;;;;;;;12.12;24.21;99553.25;4499351;31;34315;-80
2022/03/08 10:39:58;;;;;;;;;;;;;;;12.46;24.01;99539.75;4497929;31;34459;-80
2022/03/08 10:42:26;;;;;;;;;;;;;;;13.15;23.82;99538.69;4498107;31;34407;-80
2022/03/08 10:45:00;;;;;;;;;;;;;;;12.10;23.93;99541.94;4499129;31;34897;-80
2022/03/08 10:47:29;;;;;;;;;;;;;;;11.87;24.05;99543.37;4498251;31;35065;-80
2022/03/08 10:49:57;;;;;;;;;;;;;;;12.08;23.65;99540.16;4497919;31;33943;-80
2022/03/08 10:52:25;;;;;;;;;;;;;;;12.30;23.76;99539.56;4497806;31;33807;-80
2022/03/08 10:54:52;;;;;;;;;;;;;;;12.33;23.66;99546.53;4499256;31;34080;-80
2022/03/08 10:57:20;;;;;;;;;;;;;;;11.69;23.91;99542.22;4499255;31;34444;-86
2022/03/08 11:00:09;;;;;;;;;;;;;;;11.77;24.04;99538.84;4499313;31;35252;-80
2022/03/08 11:02:49;;;;;;;;;;;;;;;12.79;23.19;99536.63;4497928;31;34451;-80
2022/03/08 11:05:17;;;;;;;;;;;;;;;11.90;24.67;99535.63;4499296;31;34819;-80
2022/03/08 11:07:45;;;;;;;;;;;;;;;12.64;23.32;99533.00;4499192;31;34010;-80
2022/03/08 11:10:12;;;;;;;;;;;;;;;13.71;21.58;99533.03;4497542;31;33830;-80
2022/03/08 11:12:39;;;;;;;;;;;;;;;14.18;21.49;99532.41;4499071;31;33754;-81
2022/03/08 11:15:08;;;;;;;;;;;;;;;14.66;21.32;99530.88;4499124;31;34432;-80
2022/03/08 11:17:36;;;;;;;;;;;;;;;15.09;20.44;99523.94;4497607;31;34305;-85
2022/03/08 11:20:04;;;;;;;;;;;;;;;14.75;20.53;99517.81;4499028;31;34619;-80
2022/03/08 11:22:32;;;;;;;;;;;;;;;12.30;22.51;99520.50;4499337;31;33527;-81
2022/03/08 11:24:59;;;;;;;;;;;;;;;11.64;23.75;99538.69;4498766;31;34132;-80
2022/03/08 11:27:27;;;;;;;;;;;;;;;11.83;23.53;99523.38;4497692;31;34462;-80
2022/03/08 11:29:54;;;;;;;;;;;;;;;10.96;24.51;99525.50;4498808;31;34141;-80
2022/03/08 11:32:27;;;;;;;;;;;;;;;11.77;23.11;99521.53;4498731;31;33649;-80
2022/03/08 11:34:56;;;;;;;;;;;;;;;12.45;22.86;99515.47;4497735;31;33710;-80
2022/03/08 11:37:23;;;;;;;;;;;;;;;12.40;22.57;99514.56;4498749;31;35355;-80
2022/03/08 11:40:09;;;;;;;;;;;;;;;13.12;21.96;99518.72;4497562;31;35008;-80
2022/03/08 11:42:41;;;;;;;;;;;;;;;11.80;23.34;99520.72;4498763;31;34461;-80
2022/03/08 11:45:11;;;;;;;;;;;;;;;12.62;22.32;99510.47;4498886;31;34007;-80
2022/03/08 11:47:42;;;;;;;;;;;;;;;13.37;21.67;99505.91;4499109;31;35255;-80
2022/03/08 11:50:27;;;;;;;;;;;;;;;13.30;21.85;99509.34;4498677;31;33924;-80
2022/03/08 11:53:14;;;;;;;;;;;;;;;13.69;21.93;99503.50;4498792;31;33111;-80
2022/03/08 11:55:44;;;;;;;;;;;;;;;14.56;20.54;99503.88;4498960;31;34088;-80
2022/03/08 11:58:11;;;;;;;;;;;;;;;14.06;21.33;99498.47;4498735;31;35288;-80
2022/03/08 12:00:39;;;;;;;;;;;;;;;14.69;21.44;99490.84;4498575;31;34424;-80
2022/03/08 12:03:07;;;;;;;;;;;;;;;15.02;19.82;99482.16;4498557;31;33753;-80
2022/03/08 12:05:38;;;;;;;;;;;;;;;14.68;20.27;99478.66;4497390;31;34213;-80
2022/03/08 12:08:24;;;;;;;;;;;;;;;14.12;20.56;99475.87;4498430;31;34512;-80
2022/03/08 12:11:00;;;;;;;;;;;;;;;12.02;22.49;99483.81;4501510;31;34625;-80
2022/03/08 12:13:39;;;;;;;;;;;;;;;12.96;21.89;99492.56;4502621;31;33842;-81
2022/03/08 12:16:09;;;;;;;;;;;;;;;13.13;21.11;99484.00;4502461;31;34332;-80
2022/03/08 12:18:39;;;;;;;;;;;;;;;13.36;21.49;99478.13;4503583;31;35260;-80
2022/03/08 12:21:19;;;;;;;;;;;;;;;14.18;19.96;99471.56;4503752;31;34202;-80
2022/03/08 12:23:52;;;;;;;;;;;;;;;14.49;19.89;99464.69;4503262;31;33168;-80
2022/03/08 12:26:26;;;;;;;;;;;;;;;12.00;22.95;99471.62;4503612;31;34904;-80
2022/03/08 12:29:11;;;;;;;;;;;;;;;13.29;21.46;99481.53;4503428;31;35063;-80
2022/03/08 12:31:57;;;;;;;;;;;;;;;13.40;21.57;99472.06;4503560;31;34853;-80
2022/03/08 12:34:39;;;;;;;;;;;;;;;13.16;21.76;99470.16;4503331;31;33291;-81
2022/03/08 12:37:31;;;;;;;;;;;;;;;13.67;21.68;99471.34;4503083;31;34292;-80
2022/03/08 12:40:01;;;;;;;;;;;;;;;12.75;23.20;99472.41;4503348;31;34322;-80
2022/03/08 12:42:31;;;;;;;;;;;;;;;13.27;22.36;99475.47;4503332;31;35299;-80
2022/03/08 12:45:18;;;;;;;;;;;;;;;13.60;21.67;99464.41;4502312;31;33626;-80
2022/03/08 12:47:46;;;;;;;;;;;;;;;12.48;22.37;99468.69;4503168;31;34097;-80
2022/03/08 12:50:14;;;;;;;;;;;;;;;13.31;22.11;99459.00;4502957;31;33986;-80
2022/03/08 12:52:45;;;;;;;;;;;;;;;12.08;23.04;99457.00;4502940;31;34758;-80
2022/03/08 12:55:14;;;;;;;;;;;;;;;12.51;22.91;99455.75;4502975;31;33537;-80
2022/03/08 12:57:46;;;;;;;;;;;;;;;13.38;21.69;99438.22;4474177;31;870223;-80
2022/03/08 13:00:23;;;;;;;;;;;;;;;12.65;23.18;99446.34;4501732;31;34487;-80
2022/03/08 13:02:51;;;;;;;;;;;;;;;12.73;22.43;99449.00;4502903;31;34144;-81
2022/03/08 13:05:26;;;;;;;;;;;;;;;13.10;22.15;99437.13;4503370;31;33431;-80